Time;durP1;ratioP1;P1;durP2;ratioP2;P2;SDS_P1;SDS_P2;PMS_P1;PMS_P2;Temp;Humidity;BMP_temperature;BMP_pressure;BME280_temperature;BME280_humidity;BME280_pressure;Samples;Min_cycle;Max_cycle;Signal;HPM_P1;HPM_P2
2021/10/25 00:02:18;;;;;;;;;;;;;;;4.15;70.26;99393.76;1674308;84;24642;-85
2021/10/25 00:04:44;;;;;;;;;;;;;;;4.12;70.24;99402.48;1674133;84;22748;-81
2021/10/25 00:07:10;;;;;;;;;;;;;;;4.06;70.25;99397.47;1673836;84;26056;-82
2021/10/25 00:09:36;;;;;;;;;;;;;;;3.99;70.22;99397.67;1683839;83;24411;-82
2021/10/25 00:12:02;;;;;;;;;;;;;;;3.98;70.24;99389.53;1681375;83;20283;-81
2021/10/25 00:14:28;;;;;;;;;;;;;;;3.96;70.24;99392.59;1686302;83;24525;-83
2021/10/25 00:16:54;;;;;;;;;;;;;;;3.99;70.25;99393.79;1686304;84;21926;-84
2021/10/25 00:19:20;;;;;;;;;;;;;;;3.99;70.27;99388.61;1684040;84;26047;-83
2021/10/25 00:21:47;;;;;;;;;;;;;;;3.96;70.28;99388.27;1691069;83;24556;-82
2021/10/25 00:24:14;;;;;;;;;;;;;;;3.96;70.30;99390.00;1677262;84;20619;-86
2021/10/25 00:26:40;;;;;;;;;;;;;;;3.91;70.31;99384.11;1683715;83;24524;-86
2021/10/25 00:29:06;;;;;;;;;;;;;;;3.91;70.35;99378.93;1691257;83;21931;-86
2021/10/25 00:31:32;;;;;;;;;;;;;;;3.87;70.36;99376.03;1686767;83;26141;-86
2021/10/25 00:33:58;;;;;;;;;;;;;;;3.86;70.37;99373.03;1685573;84;24426;-85
2021/10/25 00:36:31;;;;;;;;;;;;;;;3.87;70.37;99379.91;1681655;83;20496;-82
2021/10/25 00:38:57;;;;;;;;;;;;;;;3.93;70.43;99373.27;1676834;84;24053;-83
2021/10/25 00:41:23;;;;;;;;;;;;;;;3.94;70.46;99365.88;1680703;83;22602;-85
2021/10/25 00:43:50;;;;;;;;;;;;;;;3.94;70.47;99370.62;1708978;81;21161;-81
2021/10/25 00:46:16;;;;;;;;;;;;;;;3.96;70.49;99368.84;1648140;86;24459;-86
2021/10/25 00:48:42;;;;;;;;;;;;;;;3.96;70.50;99370.58;1646232;86;20294;-82
2021/10/25 00:51:10;;;;;;;;;;;;;;;4.04;70.53;99369.91;1682555;83;24583;-82
2021/10/25 00:53:36;;;;;;;;;;;;;;;3.99;70.55;99360.98;1679161;83;22152;-86
2021/10/25 00:56:04;;;;;;;;;;;;;;;4.04;70.58;99362.13;1685608;84;25962;-85
2021/10/25 00:58:33;;;;;;;;;;;;;;;4.09;70.61;99356.41;1682527;83;24492;-84
2021/10/25 01:00:59;;;;;;;;;;;;;;;4.14;70.62;99351.49;1710725;81;20454;-85
2021/10/25 01:03:26;;;;;;;;;;;;;;;4.10;70.65;99358.08;1681481;84;24485;-86
2021/10/25 01:05:52;;;;;;;;;;;;;;;4.07;70.62;99355.59;1681568;83;23638;-86
2021/10/25 01:08:18;;;;;;;;;;;;;;;4.01;70.62;99350.58;1662698;85;26078;-86
2021/10/25 01:10:47;;;;;;;;;;;;;;;4.03;70.65;99356.13;1674033;84;24678;-86
2021/10/25 01:13:14;;;;;;;;;;;;;;;4.04;70.64;99356.95;1673678;84;20190;-84
2021/10/25 01:15:40;;;;;;;;;;;;;;;4.05;70.67;99351.73;1691227;84;24475;-86
2021/10/25 01:18:06;;;;;;;;;;;;;;;4.05;70.67;99347.00;1667068;85;22106;-86
2021/10/25 01:20:32;;;;;;;;;;;;;;;4.03;70.66;99350.10;1677859;84;26140;-84
2021/10/25 01:23:00;;;;;;;;;;;;;;;4.06;70.66;99343.08;1673955;84;24511;-85
2021/10/25 01:25:27;;;;;;;;;;;;;;;4.14;70.68;99350.64;1669829;85;20504;-85
2021/10/25 01:27:53;;;;;;;;;;;;;;;4.19;70.71;99349.61;1674081;84;25155;-85
2021/10/25 01:30:19;;;;;;;;;;;;;;;4.23;70.72;99341.30;1674015;85;22093;-85
2021/10/25 01:32:47;;;;;;;;;;;;;;;4.27;70.72;99337.70;1661870;85;26053;-83
2021/10/25 01:35:13;;;;;;;;;;;;;;;4.39;70.73;99335.20;1664504;85;24447;-85
2021/10/25 01:37:39;;;;;;;;;;;;;;;4.44;70.74;99331.57;1673207;84;20931;-85
2021/10/25 01:40:08;;;;;;;;;;;;;;;4.48;70.71;99327.98;1656556;85;24601;-85
2021/10/25 01:42:34;;;;;;;;;;;;;;;4.51;70.67;99327.91;1693429;82;21499;-85
2021/10/25 01:45:01;;;;;;;;;;;;;;;4.54;70.65;99331.69;1666466;83;26054;-85
2021/10/25 01:47:27;;;;;;;;;;;;;;;4.55;70.62;99325.61;1668479;84;24477;-84
2021/10/25 01:49:53;;;;;;;;;;;;;;;4.54;70.58;99320.47;1669398;85;20441;-85
2021/10/25 01:52:19;;;;;;;;;;;;;;;4.53;70.53;99322.20;1670785;84;20823;-85
2021/10/25 01:54:45;;;;;;;;;;;;;;;4.61;70.49;99323.27;1673874;85;22357;-85
2021/10/25 01:57:11;;;;;;;;;;;;;;;4.64;70.46;99321.42;1672636;85;26044;-86
2021/10/25 01:59:40;;;;;;;;;;;;;;;4.68;70.40;99316.16;1673076;85;20967;-86
2021/10/25 02:02:06;;;;;;;;;;;;;;;4.69;70.34;99320.45;1667421;85;20444;-86
2021/10/25 02:04:33;;;;;;;;;;;;;;;4.75;70.29;99321.08;1671107;85;20848;-85
2021/10/25 02:07:02;;;;;;;;;;;;;;;4.81;70.25;99309.66;1679358;82;21943;-86
2021/10/25 02:09:28;;;;;;;;;;;;;;;4.87;70.21;99313.35;1672612;83;26029;-86
2021/10/25 02:11:54;;;;;;;;;;;;;;;4.89;70.16;99305.08;1679040;83;24556;-86
2021/10/25 02:14:21;;;;;;;;;;;;;;;4.89;70.12;99306.38;1676563;83;20206;-87
2021/10/25 02:16:47;;;;;;;;;;;;;;;4.90;70.04;99301.59;1696864;82;24504;-86
2021/10/25 02:19:13;;;;;;;;;;;;;;;4.94;70.01;99294.95;1701721;82;20918;-83
2021/10/25 02:21:40;;;;;;;;;;;;;;;4.99;69.94;99293.05;1675041;83;26065;-84
2021/10/25 02:24:06;;;;;;;;;;;;;;;5.07;69.88;99286.33;1680978;83;24521;-86
2021/10/25 02:26:32;;;;;;;;;;;;;;;5.13;69.81;99285.27;1665460;83;20315;-83
2021/10/25 02:28:58;;;;;;;;;;;;;;;5.11;69.76;99290.95;1678257;83;24569;-82
2021/10/25 02:31:27;;;;;;;;;;;;;;;5.14;69.69;99285.19;1669504;83;22250;-82
2021/10/25 02:33:53;;;;;;;;;;;;;;;5.15;69.63;99283.00;1677414;83;21122;-83
2021/10/25 02:36:19;;;;;;;;;;;;;;;5.17;69.56;99281.21;1671964;83;24443;-82
2021/10/25 02:38:45;;;;;;;;;;;;;;;5.20;69.52;99282.39;1699239;82;20198;-86
2021/10/25 02:41:11;;;;;;;;;;;;;;;5.20;69.46;99279.80;1697752;82;24695;-86
2021/10/25 02:43:37;;;;;;;;;;;;;;;5.22;69.40;99280.59;1678023;83;21981;-83
2021/10/25 02:46:04;;;;;;;;;;;;;;;5.26;69.38;99286.52;1667814;83;26038;-86
2021/10/25 02:48:37;;;;;;;;;;;;;;;5.33;69.32;99280.22;1673180;83;24541;-83
2021/10/25 02:50:58;;;;;;;;;;;;;;;5.36;69.25;99277.06;1682273;83;20350;-83
2021/10/25 02:53:24;;;;;;;;;;;;;;;5.41;69.19;99264.77;1691211;82;24561;-84
2021/10/25 02:55:50;;;;;;;;;;;;;;;5.45;69.08;99261.63;1699381;82;22013;-84
2021/10/25 02:58:17;;;;;;;;;;;;;;;5.51;68.97;99252.77;1699609;82;26150;-83
2021/10/25 03:00:43;;;;;;;;;;;;;;;5.54;68.87;99250.05;1691355;82;24435;-85
2021/10/25 03:03:09;;;;;;;;;;;;;;;5.54;68.75;99255.23;1693448;82;20493;-81
2021/10/25 03:05:36;;;;;;;;;;;;;;;5.56;68.65;99250.86;1691463;82;24605;-81
2021/10/25 03:08:02;;;;;;;;;;;;;;;5.58;68.53;99245.98;1690002;83;22051;-84
2021/10/25 03:10:28;;;;;;;;;;;;;;;5.62;68.44;99246.25;1688499;83;26054;-85
2021/10/25 03:12:54;;;;;;;;;;;;;;;5.60;68.29;99245.94;1688334;83;24424;-82
2021/10/25 03:15:23;;;;;;;;;;;;;;;5.58;68.17;99247.73;1688597;82;20261;-85
2021/10/25 03:17:49;;;;;;;;;;;;;;;5.61;68.08;99240.70;1695883;82;24615;-84
2021/10/25 03:20:16;;;;;;;;;;;;;;;5.63;67.98;99238.02;1690732;83;21997;-81
2021/10/25 03:22:42;;;;;;;;;;;;;;;5.69;67.86;99236.05;1692987;83;26049;-85
2021/10/25 03:25:09;;;;;;;;;;;;;;;5.74;67.78;99233.27;1702747;83;24633;-83
2021/10/25 03:27:35;;;;;;;;;;;;;;;5.74;67.71;99227.62;1688758;83;20465;-85
2021/10/25 03:30:02;;;;;;;;;;;;;;;5.76;67.60;99234.08;1693820;83;24539;-83
2021/10/25 03:32:28;;;;;;;;;;;;;;;5.79;67.51;99231.34;1657450;85;22047;-85
2021/10/25 03:34:54;;;;;;;;;;;;;;;5.78;67.42;99227.08;1661024;85;21006;-85
2021/10/25 03:37:21;;;;;;;;;;;;;;;5.79;67.32;99228.75;1695764;82;24627;-85
2021/10/25 03:39:49;;;;;;;;;;;;;;;5.80;67.21;99231.75;1699195;82;20156;-85
2021/10/25 03:42:27;;;;;;;;;;;;;;;5.81;67.13;99228.25;1694665;82;24545;-85
2021/10/25 03:44:47;;;;;;;;;;;;;;;5.83;67.05;99226.45;1700816;82;22174;-81
2021/10/25 03:47:22;;;;;;;;;;;;;;;5.87;66.95;99224.16;1699658;82;25807;-85
2021/10/25 03:49:54;;;;;;;;;;;;;;;5.90;66.88;99222.73;1653560;84;24532;-85
2021/10/25 03:52:25;;;;;;;;;;;;;;;5.92;66.76;99218.78;1653747;84;20402;-85
2021/10/25 03:54:55;;;;;;;;;;;;;;;5.97;66.69;99215.55;1680830;82;24619;-86
2021/10/25 04:25:11;;;;;;;;;;;;;;;5.91;66.08;99195.85;1687616;82;26040;-85
2021/10/25 04:27:15;;;;;;;;;;;;;;;5.97;65.69;99195.62;1683668;82;26032;-85
2021/10/25 04:29:28;;;;;;;;;;;;;;;5.98;65.61;99188.22;1697492;82;24482;-82
2021/10/25 04:31:53;;;;;;;;;;;;;;;5.98;65.52;99184.78;1668653;84;20237;-85
2021/10/25 04:34:20;;;;;;;;;;;;;;;5.93;65.46;99186.27;1695358;82;25859;-85
2021/10/25 04:36:46;;;;;;;;;;;;;;;5.88;65.37;99182.55;1701216;83;22049;-84
2021/10/25 04:39:13;;;;;;;;;;;;;;;5.89;65.32;99176.91;1692925;83;26025;-85
2021/10/25 04:41:40;;;;;;;;;;;;;;;5.91;65.30;99175.52;1703299;82;26198;-85
2021/10/25 04:44:07;;;;;;;;;;;;;;;5.93;65.21;99168.08;1704627;82;20151;-82
2021/10/25 04:46:34;;;;;;;;;;;;;;;5.95;65.16;99171.44;1693257;82;24572;-81
2021/10/25 04:49:00;;;;;;;;;;;;;;;5.94;65.10;99173.67;1699815;82;22078;-85
2021/10/25 04:51:26;;;;;;;;;;;;;;;6.00;65.04;99171.28;1698755;82;25944;-84
2021/10/25 04:53:52;;;;;;;;;;;;;;;6.02;65.00;99168.16;1696434;82;24380;-82
2021/10/25 04:56:17;;;;;;;;;;;;;;;6.06;64.94;99168.41;1702370;82;20324;-84
2021/10/25 04:58:44;;;;;;;;;;;;;;;6.09;64.88;99163.96;1694881;82;24683;-83
2021/10/25 05:01:10;;;;;;;;;;;;;;;6.08;64.83;99162.27;1700849;82;21930;-82
2021/10/25 05:03:36;;;;;;;;;;;;;;;6.08;64.75;99164.86;1703190;82;21088;-86
2021/10/25 05:06:07;;;;;;;;;;;;;;;6.07;64.67;99164.47;1700586;82;24584;-82
2021/10/25 05:08:31;;;;;;;;;;;;;;;6.08;64.61;99163.56;1681068;82;20299;-82
2021/10/25 05:10:57;;;;;;;;;;;;;;;6.07;64.56;99164.47;1677637;84;24607;-81
2021/10/25 05:13:23;;;;;;;;;;;;;;;6.05;64.48;99155.05;1690816;83;21942;-81
2021/10/25 05:15:50;;;;;;;;;;;;;;;6.07;64.40;99159.72;1678606;84;25932;-81
2021/10/25 05:18:16;;;;;;;;;;;;;;;6.11;64.36;99155.63;1686167;83;24470;-81
2021/10/25 05:20:42;;;;;;;;;;;;;;;6.15;64.32;99160.27;1675830;84;20191;-82
2021/10/25 05:23:08;;;;;;;;;;;;;;;6.17;64.25;99164.48;1669273;84;24518;-81
2021/10/25 05:25:34;;;;;;;;;;;;;;;6.21;64.19;99160.88;1677115;83;21980;-81
2021/10/25 05:28:00;;;;;;;;;;;;;;;6.22;64.14;99155.20;1686603;83;21208;-85
2021/10/25 05:30:26;;;;;;;;;;;;;;;6.23;64.08;99160.34;1678481;83;24392;-84
2021/10/25 05:32:52;;;;;;;;;;;;;;;6.23;64.02;99160.34;1675827;83;20233;-81
2021/10/25 05:35:18;;;;;;;;;;;;;;;6.23;63.94;99156.44;1680893;83;20341;-83
2021/10/25 05:37:44;;;;;;;;;;;;;;;6.24;63.88;99165.94;1711052;82;20239;-83
2021/10/25 05:40:11;;;;;;;;;;;;;;;6.26;63.84;99156.78;1678947;84;21018;-86
2021/10/25 05:42:37;;;;;;;;;;;;;;;6.30;63.80;99166.14;1680148;84;24601;-85
2021/10/25 05:45:04;;;;;;;;;;;;;;;6.30;63.74;99160.48;1708806;82;20803;-81
2021/10/25 05:47:30;;;;;;;;;;;;;;;6.22;63.66;99161.69;1689777;83;24030;-84
2021/10/25 05:50:00;;;;;;;;;;;;;;;6.22;63.61;99165.59;1685107;83;21683;-83
2021/10/25 05:52:26;;;;;;;;;;;;;;;6.22;63.57;99161.69;1677274;84;25970;-84
2021/10/25 05:54:53;;;;;;;;;;;;;;;6.27;63.57;99165.80;1688469;84;24524;-84
2021/10/25 05:57:20;;;;;;;;;;;;;;;6.28;63.52;99164.89;1655334;85;20255;-84
2021/10/25 05:59:49;;;;;;;;;;;;;;;6.26;63.47;99158.94;1658253;85;24540;-84
2021/10/25 06:04:49;;;;;;;;;;;;;;;6.25;63.31;99161.14;1655638;84;25993;-85
2021/10/25 06:07:15;;;;;;;;;;;;;;;6.26;63.24;99170.63;1665095;84;24475;-86
2021/10/25 06:09:43;;;;;;;;;;;;;;;6.32;63.19;99176.48;1710387;81;20358;-83
2021/10/25 06:12:13;;;;;;;;;;;;;;;6.38;63.15;99173.64;1684921;83;24411;-84
2021/10/25 06:14:40;;;;;;;;;;;;;;;6.42;63.09;99168.24;1677756;83;22183;-84
2021/10/25 06:17:20;;;;;;;;;;;;;;;6.43;63.02;99172.54;1685574;83;26012;-83
2021/10/25 06:19:33;;;;;;;;;;;;;;;6.43;62.99;99164.73;1686878;83;24504;-82
2021/10/25 06:22:00;;;;;;;;;;;;;;;6.45;62.97;99162.91;1689352;83;20329;-82
2021/10/25 06:24:26;;;;;;;;;;;;;;;6.46;62.91;99161.16;1677270;83;24856;-83
2021/10/25 06:26:52;;;;;;;;;;;;;;;6.51;62.84;99160.50;1677737;83;21923;-85
2021/10/25 06:29:18;;;;;;;;;;;;;;;6.55;62.76;99164.20;1690643;83;25985;-85
2021/10/25 06:31:44;;;;;;;;;;;;;;;6.55;62.72;99163.36;1684185;83;20278;-86
2021/10/25 06:34:19;;;;;;;;;;;;;;;6.55;62.69;99167.26;1694679;83;20345;-82
2021/10/25 06:36:47;;;;;;;;;;;;;;;6.58;62.62;99166.70;1662055;84;24105;-85
2021/10/25 06:39:14;;;;;;;;;;;;;;;6.60;62.59;99171.36;1685197;83;21977;-83
2021/10/25 06:41:43;;;;;;;;;;;;;;;6.59;62.57;99167.55;1679780;83;26097;-83
2021/10/25 06:44:09;;;;;;;;;;;;;;;6.65;62.55;99172.49;1681143;83;24275;-87
2021/10/25 06:46:42;;;;;;;;;;;;;;;6.70;62.48;99166.64;1690352;83;20348;-86
2021/10/25 06:49:11;;;;;;;;;;;;;;;6.78;62.43;99164.98;1685551;83;25334;-87
2021/10/25 06:51:38;;;;;;;;;;;;;;;6.84;62.39;99160.38;1684609;83;22171;-86
2021/10/25 06:54:04;;;;;;;;;;;;;;;6.92;62.32;99169.16;1682190;83;26277;-86
2021/10/25 06:56:31;;;;;;;;;;;;;;;6.98;62.27;99161.09;1689075;83;24433;-82
2021/10/25 06:58:57;;;;;;;;;;;;;;;7.06;62.17;99168.09;1675766;83;20290;-82
2021/10/25 07:01:25;;;;;;;;;;;;;;;7.11;62.16;99159.17;1646849;85;25331;-81
2021/10/25 07:03:52;;;;;;;;;;;;;;;7.17;62.11;99172.83;1689576;83;21859;-86
2021/10/25 07:06:20;;;;;;;;;;;;;;;7.21;62.09;99166.11;1691110;83;26042;-84
2021/10/25 07:08:49;;;;;;;;;;;;;;;7.22;62.04;99163.05;1697363;82;24126;-86
2021/10/25 07:11:16;;;;;;;;;;;;;;;7.28;61.97;99161.03;1702861;82;20235;-85
2021/10/25 07:13:47;;;;;;;;;;;;;;;7.37;61.86;99151.94;1706987;83;24493;-85
2021/10/25 07:16:21;;;;;;;;;;;;;;;7.43;61.77;99156.88;1703206;82;23162;-85
2021/10/25 07:18:53;;;;;;;;;;;;;;;7.48;61.69;99165.32;1699932;81;26436;-82
2021/10/25 07:21:28;;;;;;;;;;;;;;;7.52;61.65;99156.02;1703883;82;25144;-82
2021/10/25 08:09:50;;;;;;;;;;;;;;;8.68;59.72;99136.90;1702456;82;22043;-86
2021/10/25 08:12:17;;;;;;;;;;;;;;;8.73;59.63;99129.67;1697792;82;26064;-85
2021/10/25 08:14:49;;;;;;;;;;;;;;;8.83;59.52;99125.31;1701040;82;24471;-86
2021/10/25 08:17:18;;;;;;;;;;;;;;;8.90;59.43;99124.89;1694356;82;20262;-86
2021/10/25 08:19:39;;;;;;;;;;;;;;;8.96;59.33;99121.97;1699442;82;24600;-85
2021/10/25 08:22:08;;;;;;;;;;;;;;;9.04;59.21;99121.12;1710318;82;20402;-82
2021/10/25 08:24:35;;;;;;;;;;;;;;;9.11;59.14;99116.42;1694089;82;26147;-81
2021/10/25 08:27:03;;;;;;;;;;;;;;;9.15;59.04;99120.09;1699970;82;24455;-87
2021/10/25 08:29:29;;;;;;;;;;;;;;;9.19;58.92;99116.37;1699585;82;20206;-86
2021/10/25 08:34:52;;;;;;;;;;;;;;;9.32;58.69;99110.05;1637399;85;22072;-82
2021/10/25 08:39:52;;;;;;;;;;;;;;;9.51;58.34;99113.80;1694188;82;24602;-82
2021/10/25 08:42:23;;;;;;;;;;;;;;;9.58;58.10;99117.77;1699464;82;20343;-81
2021/10/25 08:44:56;;;;;;;;;;;;;;;9.65;57.96;99107.37;1703438;83;24595;-86
2021/10/25 08:47:25;;;;;;;;;;;;;;;9.76;57.75;99109.38;1689669;82;22110;-85
2021/10/25 08:49:49;;;;;;;;;;;;;;;9.82;57.62;99110.34;1705133;81;26695;-82
2021/10/25 08:52:20;;;;;;;;;;;;;;;9.86;57.49;99114.47;1692705;82;24479;-82
2021/10/25 08:54:49;;;;;;;;;;;;;;;9.86;57.36;99105.32;1693616;82;20155;-82
2021/10/25 08:57:15;;;;;;;;;;;;;;;9.92;57.25;99106.28;1652401;84;24607;-82
2021/10/25 08:59:41;;;;;;;;;;;;;;;9.95;57.16;99101.72;1686923;83;22329;-82
2021/10/25 09:02:13;;;;;;;;;;;;;;;10.01;57.02;99100.06;1683807;83;21168;-82
2021/10/25 09:04:39;;;;;;;;;;;;;;;10.05;56.93;99107.26;1681233;83;25300;-85
2021/10/25 09:07:05;;;;;;;;;;;;;;;10.09;56.79;99099.14;1676849;83;20486;-82
2021/10/25 09:09:34;;;;;;;;;;;;;;;10.13;56.65;99101.14;1684980;83;24607;-82
2021/10/25 09:12:07;;;;;;;;;;;;;;;10.22;56.51;99100.63;1688213;83;22666;-84
2021/10/25 09:14:35;;;;;;;;;;;;;;;10.28;56.40;99096.82;1679024;83;26232;-85
2021/10/25 09:17:02;;;;;;;;;;;;;;;10.34;56.25;99100.39;1679828;83;24530;-85
2021/10/25 09:19:32;;;;;;;;;;;;;;;10.39;56.09;99095.27;1683023;83;20255;-86
2021/10/25 09:22:06;;;;;;;;;;;;;;;10.47;55.87;99094.83;1685849;83;25180;-86
2021/10/25 09:24:35;;;;;;;;;;;;;;;10.51;55.69;99093.71;1660812;84;22748;-82
2021/10/25 09:27:04;;;;;;;;;;;;;;;10.55;55.54;99092.59;1674532;84;26065;-82
2021/10/25 09:29:32;;;;;;;;;;;;;;;10.59;55.45;99089.31;1635921;85;24465;-82
2021/10/25 09:32:04;;;;;;;;;;;;;;;10.64;55.35;99089.88;1641145;86;20300;-87
2021/10/25 09:34:46;;;;;;;;;;;;;;;10.69;55.25;99082.62;1675104;84;25526;-82
2021/10/25 09:37:13;;;;;;;;;;;;;;;10.77;55.13;99083.83;1657547;84;22182;-82
2021/10/25 09:39:44;;;;;;;;;;;;;;;10.87;55.07;99082.80;1674577;84;26718;-82
2021/10/25 09:50:44;;;;;;;;;;;;;;;11.10;54.49;99077.01;1656352;85;22089;-84
2021/10/25 09:53:12;;;;;;;;;;;;;;;11.18;54.33;99068.19;1647228;85;26621;-86
2021/10/25 09:55:43;;;;;;;;;;;;;;;11.28;54.12;99074.56;1649686;85;24545;-86
2021/10/25 09:58:17;;;;;;;;;;;;;;;11.32;53.92;99064.72;1648739;86;20521;-86
2021/10/25 10:00:38;;;;;;;;;;;;;;;11.39;53.67;99066.03;1650164;85;24852;-86
2021/10/25 10:03:04;;;;;;;;;;;;;;;11.45;53.47;99057.78;1644728;86;21682;-87
2021/10/25 10:05:36;;;;;;;;;;;;;;;11.52;53.29;99058.21;1647036;86;21928;-82
2021/10/25 10:07:58;;;;;;;;;;;;;;;11.54;53.13;99065.52;1647575;85;24540;-82
2021/10/25 10:10:24;;;;;;;;;;;;;;;11.58;52.99;99059.98;1696738;82;20167;-86
2021/10/25 10:12:51;;;;;;;;;;;;;;;11.65;52.83;99052.57;1699851;83;24620;-86
2021/10/25 10:15:18;;;;;;;;;;;;;;;11.69;52.72;99049.64;1727315;82;22188;-86
2021/10/25 10:17:48;;;;;;;;;;;;;;;11.74;52.64;99050.22;1700025;82;25936;-86
2021/10/25 10:20:16;;;;;;;;;;;;;;;11.80;52.52;99047.67;1700079;82;24619;-83
2021/10/25 10:22:44;;;;;;;;;;;;;;;11.86;52.36;99043.81;1695924;82;20277;-86
2021/10/25 10:25:10;;;;;;;;;;;;;;;11.94;52.27;99042.38;1704593;82;24549;-85
2021/10/25 10:27:37;;;;;;;;;;;;;;;12.01;52.17;99027.90;1732961;81;23183;-82
2021/10/25 10:30:04;;;;;;;;;;;;;;;12.08;52.00;99027.03;1695169;82;20759;-82
2021/10/25 10:32:31;;;;;;;;;;;;;;;12.15;51.87;99031.78;1702428;82;24485;-85
2021/10/25 10:34:59;;;;;;;;;;;;;;;12.29;51.61;99026.06;1699279;82;20247;-83
2021/10/25 10:37:28;;;;;;;;;;;;;;;12.39;51.42;99025.80;1705343;82;24562;-84
2021/10/25 10:39:58;;;;;;;;;;;;;;;12.47;51.24;99020.89;1667119;85;22728;-85
2021/10/25 10:42:26;;;;;;;;;;;;;;;12.53;51.02;99020.47;1667721;85;26632;-87
2021/10/25 10:44:59;;;;;;;;;;;;;;;12.59;50.81;99025.31;1663910;86;24620;-82
2021/10/25 10:47:23;;;;;;;;;;;;;;;12.62;50.65;99026.39;1698427;83;20242;-82
2021/10/25 10:49:53;;;;;;;;;;;;;;;12.67;50.44;99021.66;1699249;82;25207;-82
2021/10/25 10:52:45;;;;;;;;;;;;;;;12.71;50.22;99019.19;1699476;82;21416;-83
2021/10/25 10:55:32;;;;;;;;;;;;;;;12.78;50.02;99020.92;1704979;82;26081;-82
2021/10/25 11:00:30;;;;;;;;;;;;;;;12.95;49.49;99012.23;1699884;82;20329;-81
2021/10/25 11:02:57;;;;;;;;;;;;;;;13.02;49.32;99012.66;1691738;83;24769;-85
2021/10/25 11:05:31;;;;;;;;;;;;;;;13.10;49.15;99015.56;1686367;82;22210;-82
2021/10/25 11:08:02;;;;;;;;;;;;;;;13.16;48.96;99006.44;1701416;82;26126;-83
2021/10/25 11:10:31;;;;;;;;;;;;;;;13.20;48.82;99003.98;1668445;83;24450;-83
2021/10/25 11:13:01;;;;;;;;;;;;;;;13.31;48.63;99005.36;1634140;85;20219;-87
2021/10/25 11:15:34;;;;;;;;;;;;;;;13.39;48.47;99001.22;1646913;84;24550;-87
2021/10/25 11:17:59;;;;;;;;;;;;;;;13.49;48.27;99007.12;1647636;85;22853;-86
2021/10/25 11:20:26;;;;;;;;;;;;;;;13.59;47.95;99005.49;1651876;85;26042;-83
2021/10/25 11:22:52;;;;;;;;;;;;;;;13.65;47.65;99011.15;1651937;85;25088;-83
2021/10/25 11:25:20;;;;;;;;;;;;;;;13.68;47.48;99004.37;1648436;85;20339;-82
2021/10/25 11:27:48;;;;;;;;;;;;;;;13.73;47.23;98996.97;1652222;85;24699;-83
2021/10/25 11:30:17;;;;;;;;;;;;;;;13.82;46.99;98998.08;1650717;85;22026;-83
2021/10/25 11:32:44;;;;;;;;;;;;;;;13.91;46.85;98997.89;1647612;85;25993;-83
2021/10/25 11:35:12;;;;;;;;;;;;;;;13.92;46.70;98991.64;1649324;85;24525;-83
2021/10/25 11:37:46;;;;;;;;;;;;;;;13.98;46.57;98987.24;1646531;85;20330;-87
2021/10/25 11:40:10;;;;;;;;;;;;;;;13.99;46.47;98988.45;1646554;85;24853;-87
2021/10/25 11:42:36;;;;;;;;;;;;;;;14.00;46.32;98989.30;1651700;84;22177;-83
2021/10/25 11:45:04;;;;;;;;;;;;;;;14.01;46.11;98987.87;1650605;85;26171;-82
2021/10/25 11:47:32;;;;;;;;;;;;;;;14.02;45.92;98982.14;1653624;85;24497;-87
2021/10/25 11:50:09;;;;;;;;;;;;;;;14.06;45.79;98979.16;1673399;84;20241;-82
2021/10/25 11:52:37;;;;;;;;;;;;;;;14.09;45.69;98978.06;1650946;85;24643;-87
2021/10/25 11:55:03;;;;;;;;;;;;;;;14.13;45.51;98978.19;1647328;85;22074;-85
2021/10/25 11:57:29;;;;;;;;;;;;;;;14.18;45.33;98975.57;1653972;86;25995;-83
2021/10/25 11:59:59;;;;;;;;;;;;;;;14.19;45.18;98975.09;1651194;85;25029;-83
2021/10/25 12:02:25;;;;;;;;;;;;;;;14.22;45.02;98970.93;1652231;85;20493;-85
2021/10/25 12:04:52;;;;;;;;;;;;;;;14.21;44.90;98967.93;1643559;85;24792;-87
2021/10/25 12:07:18;;;;;;;;;;;;;;;14.17;44.74;98966.02;1647118;85;22275;-83
2021/10/25 12:09:44;;;;;;;;;;;;;;;14.19;44.67;98958.83;1645009;85;25956;-83
2021/10/25 12:12:19;;;;;;;;;;;;;;;14.20;44.54;98962.30;1644681;85;24546;-85
2021/10/25 12:14:45;;;;;;;;;;;;;;;14.24;44.41;98965.05;1638549;85;20182;-87
2021/10/25 12:17:17;;;;;;;;;;;;;;;14.28;44.25;98953.35;1639941;86;24560;-87
2021/10/25 12:19:44;;;;;;;;;;;;;;;14.27;44.17;98954.30;1646743;85;22784;-87
2021/10/25 12:22:18;;;;;;;;;;;;;;;14.24;44.03;98948.78;1637128;85;26660;-84
2021/10/25 12:24:48;;;;;;;;;;;;;;;14.22;43.90;98948.55;1634071;86;24492;-83
2021/10/25 12:27:19;;;;;;;;;;;;;;;14.24;43.81;98949.25;1644045;85;20243;-83
2021/10/25 12:29:45;;;;;;;;;;;;;;;14.31;43.72;98944.36;1640488;85;24430;-85
2021/10/25 12:32:12;;;;;;;;;;;;;;;14.27;43.61;98941.14;1637444;85;22120;-83
2021/10/25 12:34:52;;;;;;;;;;;;;;;14.30;43.47;98942.20;1644107;85;25964;-85
2021/10/25 12:37:20;;;;;;;;;;;;;;;14.29;43.40;98940.55;1631344;86;24456;-84
2021/10/25 12:39:46;;;;;;;;;;;;;;;14.31;43.17;98935.98;1682125;83;20291;-84
2021/10/25 12:42:14;;;;;;;;;;;;;;;14.32;42.98;98938.15;1682652;83;20306;-82
2021/10/25 12:44:44;;;;;;;;;;;;;;;14.35;42.90;98924.73;1686381;83;21919;-86
2021/10/25 12:47:19;;;;;;;;;;;;;;;14.29;42.73;98923.44;1692554;83;26057;-85
2021/10/25 12:49:47;;;;;;;;;;;;;;;14.23;42.62;98918.64;1643331;84;24446;-84
2021/10/25 12:52:13;;;;;;;;;;;;;;;14.25;42.48;98913.61;1684382;83;20195;-83
2021/10/25 12:54:39;;;;;;;;;;;;;;;14.28;42.33;98915.17;1689571;83;24512;-83
2021/10/25 12:57:16;;;;;;;;;;;;;;;14.27;42.26;98911.34;1715907;81;22038;-86
2021/10/25 12:59:42;;;;;;;;;;;;;;;14.24;42.19;98904.50;1685087;83;26622;-86
2021/10/25 13:02:09;;;;;;;;;;;;;;;14.25;42.06;98904.87;1714702;81;24306;-82
2021/10/25 13:04:36;;;;;;;;;;;;;;;14.27;41.99;98902.13;1683802;83;20247;-86
2021/10/25 13:07:19;;;;;;;;;;;;;;;14.29;41.91;98899.75;1690235;83;24531;-84
2021/10/25 13:09:47;;;;;;;;;;;;;;;14.22;41.80;98891.48;1692746;82;22005;-83
2021/10/25 13:12:13;;;;;;;;;;;;;;;14.16;41.66;98889.80;1704993;82;26107;-81
2021/10/25 13:14:39;;;;;;;;;;;;;;;14.13;41.64;98886.91;1698026;82;24482;-82
2021/10/25 13:17:07;;;;;;;;;;;;;;;14.09;41.59;98885.95;1699557;83;20535;-84
2021/10/25 13:19:35;;;;;;;;;;;;;;;14.09;41.42;98890.73;1693661;82;25327;-86
2021/10/25 13:22:01;;;;;;;;;;;;;;;14.13;41.30;98883.43;1699392;82;21976;-86
2021/10/25 13:24:27;;;;;;;;;;;;;;;14.09;41.25;98879.37;1702632;83;25968;-82
2021/10/25 13:26:54;;;;;;;;;;;;;;;14.09;41.16;98879.37;1698400;82;24406;-82
2021/10/25 13:29:20;;;;;;;;;;;;;;;14.06;41.06;98868.62;1703717;82;21376;-81
2021/10/25 13:31:46;;;;;;;;;;;;;;;14.00;40.99;98869.56;1685809;83;25332;-82
2021/10/25 13:34:12;;;;;;;;;;;;;;;13.99;40.81;98866.56;1687849;83;21941;-82
2021/10/25 13:36:40;;;;;;;;;;;;;;;13.98;40.75;98872.30;1706638;82;26052;-82
2021/10/25 13:39:08;;;;;;;;;;;;;;;13.97;40.64;98865.36;1683019;83;25334;-82
2021/10/25 13:41:34;;;;;;;;;;;;;;;13.98;40.53;98868.83;1694711;83;20654;-83
2021/10/25 13:44:01;;;;;;;;;;;;;;;13.90;40.39;98865.95;1683890;83;20277;-82
2021/10/25 13:46:27;;;;;;;;;;;;;;;13.94;40.29;98864.28;1684324;83;22024;-85
2021/10/25 13:48:52;;;;;;;;;;;;;;;13.93;40.23;98858.66;1687550;84;21025;-85
2021/10/25 13:51:18;;;;;;;;;;;;;;;13.92;40.11;98857.45;1687064;83;20238;-85
2021/10/25 13:53:45;;;;;;;;;;;;;;;13.82;40.03;98850.27;1687080;83;20925;-85
2021/10/25 13:56:12;;;;;;;;;;;;;;;13.76;39.94;98851.21;1683653;83;24528;-85
2021/10/25 13:58:38;;;;;;;;;;;;;;;13.71;39.88;98844.98;1683515;83;22062;-84
2021/10/25 14:01:04;;;;;;;;;;;;;;;13.62;39.77;98836.49;1693013;83;25946;-84
2021/10/25 14:03:32;;;;;;;;;;;;;;;13.60;39.69;98841.02;1687158;83;24580;-84
2021/10/25 14:06:03;;;;;;;;;;;;;;;13.60;39.60;98838.86;1680003;83;20350;-82
2021/10/25 14:08:26;;;;;;;;;;;;;;;13.58;39.48;98839.48;1693861;83;24619;-82
2021/10/25 14:10:52;;;;;;;;;;;;;;;13.52;39.35;98835.99;1688622;83;21937;-82
2021/10/25 14:13:40;;;;;;;;;;;;;;;13.48;39.28;98834.05;1683755;83;26319;-82
2021/10/25 14:16:10;;;;;;;;;;;;;;;13.40;39.23;98832.48;1686304;83;23997;-82
2021/10/25 14:18:36;;;;;;;;;;;;;;;13.31;39.17;98834.00;1686212;83;20293;-86
2021/10/25 14:21:03;;;;;;;;;;;;;;;13.24;39.14;98831.95;1688076;83;24787;-86
2021/10/25 14:23:29;;;;;;;;;;;;;;;13.20;39.07;98839.20;1685643;83;22073;-86
2021/10/25 14:25:55;;;;;;;;;;;;;;;13.20;39.05;98831.33;1694369;83;26035;-86
2021/10/25 14:28:22;;;;;;;;;;;;;;;13.20;38.96;98833.14;1688670;83;24400;-85